Time;durP1;ratioP1;P1;durP2;ratioP2;P2;SDS_P1;SDS_P2;PMS_P1;PMS_P2;Temp;Humidity;BMP_temperature;BMP_pressure;BME280_temperature;BME280_humidity;BME280_pressure;Samples;Min_cycle;Max_cycle;Signal;HPM_P1;HPM_P2
2023/12/20 00:01:56;;;;;;;14.57;4.07;;;;;;;;;;4967980;28;20213;-88
2023/12/20 00:04:21;;;;;;;10.13;4.00;;;;;;;;;;4975868;28;20245;-84
2023/12/20 00:06:47;;;;;;;13.93;4.10;;;;;;;;;;4977836;28;20209;-87
2023/12/20 00:09:14;;;;;;;16.37;4.67;;;;;;;;;;4991777;28;20228;-87
2023/12/20 00:11:42;;;;;;;14.10;4.70;;;;;;;;;;4980067;28;20217;-86
2023/12/20 00:14:12;;;;;;;10.70;4.57;;;;;;;;;;4960695;28;20237;-87
2023/12/20 00:16:38;;;;;;;12.53;4.90;;;;;;;;;;4978168;28;20229;-86
2023/12/20 00:19:05;;;;;;;14.67;4.90;;;;;;;;;;4958098;28;20228;-85
2023/12/20 00:21:36;;;;;;;19.13;5.83;;;;;;;;;;4953297;28;20245;-86
2023/12/20 00:24:01;;;;;;;14.70;6.50;;;;;;;;;;4973437;28;20609;-85
2023/12/20 00:26:29;;;;;;;15.53;7.20;;;;;;;;;;4974599;28;20218;-88
2023/12/20 00:28:54;;;;;;;16.57;7.33;;;;;;;;;;4953025;28;20298;-86
2023/12/20 00:31:22;;;;;;;15.67;7.07;;;;;;;;;;4972988;28;20226;-87
2023/12/20 00:33:48;;;;;;;21.53;6.33;;;;;;;;;;4971426;28;20243;-87
2023/12/20 00:36:16;;;;;;;12.23;5.70;;;;;;;;;;4961690;28;20671;-88
2023/12/20 00:38:44;;;;;;;16.60;5.20;;;;;;;;;;4963784;28;20341;-88
2023/12/20 00:41:12;;;;;;;15.17;5.13;;;;;;;;;;4970518;28;20237;-87
2023/12/20 00:43:38;;;;;;;8.37;4.43;;;;;;;;;;4978584;28;20259;-88
2023/12/20 00:46:03;;;;;;;15.37;5.77;;;;;;;;;;4968094;28;20222;-85
2023/12/20 00:48:31;;;;;;;13.73;5.00;;;;;;;;;;4973185;28;20234;-87
2023/12/20 00:50:59;;;;;;;16.17;5.40;;;;;;;;;;4974919;28;20666;-86
2023/12/20 00:53:30;;;;;;;12.83;4.60;;;;;;;;;;4959369;28;20293;-87
2023/12/20 00:55:55;;;;;;;15.27;4.80;;;;;;;;;;4961110;28;20214;-86
2023/12/20 00:58:21;;;;;;;12.03;4.40;;;;;;;;;;4967501;28;20224;-88
2023/12/20 01:00:48;;;;;;;10.40;4.10;;;;;;;;;;4960940;28;20765;-87
2023/12/20 01:03:16;;;;;;;16.47;4.00;;;;;;;;;;4990125;28;20222;-85
2023/12/20 01:05:42;;;;;;;13.60;4.07;;;;;;;;;;4979660;28;20234;-85
2023/12/20 01:08:07;;;;;;;17.40;4.03;;;;;;;;;;4954269;28;20225;-87
2023/12/20 01:10:33;;;;;;;13.13;3.70;;;;;;;;;;4973415;28;20713;-86
2023/12/20 01:12:58;;;;;;;12.00;3.97;;;;;;;;;;4984767;28;20638;-86
2023/12/20 01:15:24;;;;;;;10.50;3.33;;;;;;;;;;4977343;28;20257;-88
2023/12/20 01:17:49;;;;;;;17.97;3.43;;;;;;;;;;4960339;28;20228;-86
2023/12/20 01:20:19;;;;;;;14.40;3.30;;;;;;;;;;4966831;28;20244;-87
2023/12/20 01:22:45;;;;;;;15.63;3.43;;;;;;;;;;4979496;28;20323;-86
2023/12/20 01:25:15;;;;;;;12.30;3.60;;;;;;;;;;4975914;28;20750;-86
2023/12/20 01:27:41;;;;;;;14.43;4.00;;;;;;;;;;4989289;28;20649;-85
2023/12/20 01:30:09;;;;;;;7.60;3.10;;;;;;;;;;4990659;28;20225;-85
2023/12/20 01:32:37;;;;;;;13.40;4.13;;;;;;;;;;4945085;28;20321;-87
2023/12/20 01:35:06;;;;;;;11.30;3.57;;;;;;;;;;4972263;28;20233;-86
2023/12/20 01:37:36;;;;;;;17.37;3.47;;;;;;;;;;4995962;28;20231;-84
2023/12/20 01:40:02;;;;;;;11.03;3.83;;;;;;;;;;4970694;28;20305;-83
2023/12/20 01:42:27;;;;;;;18.43;3.97;;;;;;;;;;4983066;28;20252;-86
2023/12/20 01:44:55;;;;;;;11.67;3.37;;;;;;;;;;4981698;28;20248;-85
2023/12/20 01:47:24;;;;;;;16.03;3.77;;;;;;;;;;4961554;28;20333;-88
2023/12/20 01:49:49;;;;;;;13.37;3.60;;;;;;;;;;4968391;28;20238;-88
2023/12/20 01:52:15;;;;;;;12.93;3.70;;;;;;;;;;4949964;28;20224;-87
2023/12/20 01:54:44;;;;;;;18.40;4.23;;;;;;;;;;4971262;28;20749;-86
2023/12/20 01:57:10;;;;;;;16.37;4.03;;;;;;;;;;4967135;28;20224;-86
2023/12/20 01:59:35;;;;;;;16.33;3.60;;;;;;;;;;4963508;28;20217;-87
2023/12/20 02:02:01;;;;;;;7.87;3.40;;;;;;;;;;4937824;28;20304;-85
2023/12/20 02:04:31;;;;;;;11.70;3.97;;;;;;;;;;4981704;28;20233;-87
2023/12/20 02:06:56;;;;;;;21.37;4.53;;;;;;;;;;4978376;28;20228;-86
2023/12/20 02:09:22;;;;;;;10.90;4.20;;;;;;;;;;4973260;28;21726;-86
2023/12/20 02:11:49;;;;;;;15.97;4.20;;;;;;;;;;4962056;28;20229;-87
2023/12/20 02:14:14;;;;;;;18.87;4.13;;;;;;;;;;4958685;28;20233;-88
2023/12/20 02:16:40;;;;;;;17.90;4.33;;;;;;;;;;4958754;28;20226;-89
2023/12/20 02:19:08;;;;;;;14.67;4.13;;;;;;;;;;4989617;28;20773;-86
2023/12/20 02:21:36;;;;;;;14.30;4.20;;;;;;;;;;4980432;28;20229;-88
2023/12/20 02:24:01;;;;;;;14.43;4.03;;;;;;;;;;4965493;28;20236;-85
2023/12/20 02:26:27;;;;;;;16.00;4.13;;;;;;;;;;4989626;28;20725;-86
2023/12/20 02:28:55;;;;;;;11.00;3.70;;;;;;;;;;4961071;28;20233;-86
2023/12/20 02:31:23;;;;;;;12.60;3.83;;;;;;;;;;4952770;28;20751;-87
2023/12/20 02:33:51;;;;;;;11.37;3.10;;;;;;;;;;4961206;28;20216;-86
2023/12/20 02:36:17;;;;;;;11.50;3.60;;;;;;;;;;4971280;28;20218;-87
2023/12/20 02:38:42;;;;;;;12.27;3.70;;;;;;;;;;4959747;28;20228;-86
2023/12/20 02:41:10;;;;;;;13.43;3.50;;;;;;;;;;5006301;28;20218;-82
2023/12/20 02:43:38;;;;;;;11.90;3.50;;;;;;;;;;4999163;28;20201;-84
2023/12/20 02:46:04;;;;;;;15.03;3.20;;;;;;;;;;4946415;28;20348;-89
2023/12/20 02:48:29;;;;;;;13.57;3.20;;;;;;;;;;4967997;28;20226;-85
2023/12/20 02:51:00;;;;;;;14.70;3.13;;;;;;;;;;4967691;28;20217;-86
2023/12/20 02:53:25;;;;;;;12.17;2.83;;;;;;;;;;4996879;28;20238;-83
2023/12/20 02:55:51;;;;;;;13.77;3.20;;;;;;;;;;4962150;28;20214;-87
2023/12/20 02:58:19;;;;;;;12.10;3.20;;;;;;;;;;4990940;28;20612;-86
2023/12/20 03:00:49;;;;;;;10.43;2.83;;;;;;;;;;4988474;28;20220;-83
2023/12/20 03:03:17;;;;;;;10.00;3.10;;;;;;;;;;4964403;28;20300;-87
2023/12/20 03:05:45;;;;;;;11.40;2.83;;;;;;;;;;4977177;28;20237;-88
2023/12/20 03:08:13;;;;;;;14.10;3.40;;;;;;;;;;4957799;28;20280;-87
2023/12/20 03:10:41;;;;;;;9.93;3.00;;;;;;;;;;4962835;28;20313;-85
2023/12/20 03:13:07;;;;;;;10.67;2.90;;;;;;;;;;4939986;28;20218;-88
2023/12/20 03:15:35;;;;;;;14.87;3.13;;;;;;;;;;4968346;28;20231;-87
2023/12/20 03:18:00;;;;;;;12.17;3.73;;;;;;;;;;4959506;28;20229;-87
2023/12/20 03:20:26;;;;;;;9.63;2.93;;;;;;;;;;4959624;28;20233;-86
2023/12/20 03:22:52;;;;;;;14.83;3.63;;;;;;;;;;4971906;28;20665;-83
2023/12/20 03:25:19;;;;;;;14.27;3.53;;;;;;;;;;4975733;28;20222;-87
2023/12/20 03:27:45;;;;;;;14.57;4.20;;;;;;;;;;4972659;28;20280;-87
2023/12/20 03:30:10;;;;;;;10.17;3.47;;;;;;;;;;4974584;28;20235;-86
2023/12/20 03:32:40;;;;;;;12.23;3.90;;;;;;;;;;4958496;28;20234;-86
2023/12/20 03:35:06;;;;;;;11.93;3.77;;;;;;;;;;4960864;28;20296;-88
2023/12/20 03:37:31;;;;;;;11.30;4.27;;;;;;;;;;4946504;28;20249;-89
2023/12/20 03:39:59;;;;;;;15.13;4.27;;;;;;;;;;4990475;28;20225;-86
2023/12/20 03:42:27;;;;;;;11.07;4.17;;;;;;;;;;4942165;28;20705;-86
2023/12/20 03:44:52;;;;;;;14.83;4.73;;;;;;;;;;4988968;28;20229;-84
2023/12/20 03:47:21;;;;;;;13.87;4.77;;;;;;;;;;4960152;28;20225;-89
2023/12/20 03:49:46;;;;;;;15.20;4.73;;;;;;;;;;4993794;28;20233;-86
2023/12/20 03:52:15;;;;;;;8.83;3.93;;;;;;;;;;4994738;28;20276;-89
2023/12/20 03:54:42;;;;;;;9.53;4.23;;;;;;;;;;4959129;28;20225;-87
2023/12/20 03:57:08;;;;;;;13.77;4.43;;;;;;;;;;4960982;28;20218;-88
2023/12/20 04:03:21;;;;;;;8.23;3.90;;;;;;;;;;4998450;28;20673;-85
2023/12/20 04:05:49;;;;;;;11.63;3.77;;;;;;;;;;4963950;28;20229;-86
2023/12/20 04:08:14;;;;;;;8.47;4.07;;;;;;;;;;4997957;28;20236;-84
2023/12/20 04:10:42;;;;;;;9.43;3.70;;;;;;;;;;4959522;28;20719;-85
2023/12/20 04:13:08;;;;;;;10.07;3.63;;;;;;;;;;4960192;28;20228;-85
2023/12/20 04:15:36;;;;;;;15.17;4.13;;;;;;;;;;4977775;28;20230;-85
2023/12/20 04:18:01;;;;;;;11.10;3.70;;;;;;;;;;4977979;28;20229;-88
2023/12/20 04:20:29;;;;;;;13.73;4.00;;;;;;;;;;4961339;28;20645;-86
2023/12/20 04:22:57;;;;;;;12.10;3.73;;;;;;;;;;4974026;28;20249;-87
2023/12/20 04:25:25;;;;;;;13.00;4.00;;;;;;;;;;4992285;28;20340;-86
2023/12/20 04:27:50;;;;;;;16.00;4.30;;;;;;;;;;4974388;28;20235;-87
2023/12/20 04:30:18;;;;;;;10.03;3.87;;;;;;;;;;4991342;28;20252;-85
2023/12/20 04:32:44;;;;;;;18.07;4.90;;;;;;;;;;4988160;28;20222;-86
2023/12/20 04:35:09;;;;;;;15.97;4.70;;;;;;;;;;4967405;28;20230;-84
2023/12/20 04:37:35;;;;;;;9.80;3.77;;;;;;;;;;4973934;28;20551;-84
2023/12/20 04:40:01;;;;;;;11.97;5.23;;;;;;;;;;4986777;28;20243;-86
2023/12/20 04:42:26;;;;;;;13.03;4.83;;;;;;;;;;4989529;28;20232;-84
2023/12/20 04:44:54;;;;;;;13.00;4.73;;;;;;;;;;4960643;28;20218;-86
2023/12/20 04:47:20;;;;;;;10.67;4.87;;;;;;;;;;4940055;28;20647;-84
2023/12/20 04:49:46;;;;;;;13.93;4.93;;;;;;;;;;4954481;28;20238;-85
2023/12/20 04:52:11;;;;;;;12.17;5.00;;;;;;;;;;4965992;28;20217;-86
2023/12/20 04:54:44;;;;;;;12.30;4.40;;;;;;;;;;4941213;28;20228;-78
2023/12/20 04:57:11;;;;;;;12.63;5.30;;;;;;;;;;5010175;28;20683;-77
2023/12/20 04:59:41;;;;;;;11.70;5.10;;;;;;;;;;4992923;28;20250;-78
2023/12/20 05:02:07;;;;;;;18.33;5.90;;;;;;;;;;5000556;28;20236;-76
2023/12/20 05:04:35;;;;;;;14.40;5.30;;;;;;;;;;4974722;28;20221;-78
2023/12/20 05:07:00;;;;;;;13.07;5.67;;;;;;;;;;4977831;28;20234;-77
2023/12/20 05:09:26;;;;;;;9.10;5.20;;;;;;;;;;4995523;28;20241;-78
2023/12/20 05:11:51;;;;;;;16.33;5.13;;;;;;;;;;4985742;28;20733;-78
2023/12/20 05:14:23;;;;;;;11.60;5.13;;;;;;;;;;4991221;28;20284;-78
2023/12/20 05:16:53;;;;;;;12.40;4.70;;;;;;;;;;5017755;28;20220;-78
2023/12/20 05:19:19;;;;;;;14.80;4.63;;;;;;;;;;4972281;28;20247;-78
2023/12/20 05:21:44;;;;;;;17.37;4.63;;;;;;;;;;4970068;28;20226;-80
2023/12/20 05:24:12;;;;;;;11.27;4.77;;;;;;;;;;4985419;28;20772;-78
2023/12/20 05:26:40;;;;;;;8.87;4.00;;;;;;;;;;4980207;28;20692;-78
2023/12/20 05:29:05;;;;;;;13.10;4.77;;;;;;;;;;4986146;28;20236;-77
2023/12/20 05:31:31;;;;;;;13.47;5.93;;;;;;;;;;4962714;28;20230;-78
2023/12/20 05:33:59;;;;;;;11.17;5.23;;;;;;;;;;4979575;28;20248;-78
2023/12/20 05:36:29;;;;;;;11.30;4.97;;;;;;;;;;4996541;28;20230;-77
2023/12/20 05:38:57;;;;;;;13.63;4.97;;;;;;;;;;4969563;28;20225;-77
2023/12/20 05:41:25;;;;;;;15.53;5.23;;;;;;;;;;4947227;28;20218;-78
2023/12/20 05:43:57;;;;;;;10.93;5.03;;;;;;;;;;5000804;28;20582;-79
2023/12/20 05:46:23;;;;;;;11.33;4.70;;;;;;;;;;4966819;28;20230;-80
2023/12/20 05:48:49;;;;;;;13.70;4.60;;;;;;;;;;4967777;28;20237;-76
2023/12/20 05:51:17;;;;;;;11.73;4.53;;;;;;;;;;4976071;28;20233;-78
2023/12/20 05:53:49;;;;;;;8.50;4.07;;;;;;;;;;4967123;28;20253;-76
2023/12/20 05:56:15;;;;;;;14.30;5.00;;;;;;;;;;4987656;28;20612;-80
2023/12/20 05:58:41;;;;;;;12.07;4.57;;;;;;;;;;4979777;28;20238;-77
2023/12/20 06:01:08;;;;;;;12.43;4.07;;;;;;;;;;4965595;28;20244;-78
2023/12/20 06:03:34;;;;;;;16.33;3.80;;;;;;;;;;4967708;28;20730;-79
2023/12/20 06:06:08;;;;;;;10.90;4.50;;;;;;;;;;4979775;28;20245;-76
2023/12/20 06:08:35;;;;;;;9.27;4.37;;;;;;;;;;4979635;28;20240;-78
2023/12/20 06:11:05;;;;;;;9.87;4.50;;;;;;;;;;4979035;28;20226;-78
2023/12/20 06:13:35;;;;;;;11.03;4.53;;;;;;;;;;4979141;28;20226;-77
2023/12/20 06:16:01;;;;;;;16.83;4.00;;;;;;;;;;4955464;28;20233;-78
2023/12/20 06:18:29;;;;;;;10.40;4.10;;;;;;;;;;4961308;28;21059;-77
2023/12/20 06:20:59;;;;;;;13.87;4.30;;;;;;;;;;4962973;28;20261;-78
2023/12/20 06:23:28;;;;;;;10.97;4.13;;;;;;;;;;4979959;28;20304;-77
2023/12/20 06:25:53;;;;;;;8.13;3.83;;;;;;;;;;4962281;28;20222;-77
2023/12/20 06:28:21;;;;;;;11.53;3.93;;;;;;;;;;4976643;28;20228;-77
2023/12/20 06:30:54;;;;;;;9.17;3.73;;;;;;;;;;4989345;28;20312;-78
2023/12/20 06:33:22;;;;;;;13.80;4.47;;;;;;;;;;4963355;28;20509;-79
2023/12/20 06:35:48;;;;;;;14.13;4.57;;;;;;;;;;4985572;28;20293;-78
2023/12/20 06:38:14;;;;;;;12.90;4.07;;;;;;;;;;4978197;28;20222;-76
2023/12/20 06:40:39;;;;;;;14.43;3.77;;;;;;;;;;4984136;28;20288;-79
2023/12/20 06:43:06;;;;;;;11.33;3.90;;;;;;;;;;4963126;28;20229;-78
2023/12/20 06:45:34;;;;;;;12.00;3.70;;;;;;;;;;4977988;28;20321;-78
2023/12/20 06:48:00;;;;;;;10.93;4.07;;;;;;;;;;4984190;28;20690;-79
2023/12/20 06:50:28;;;;;;;9.73;3.83;;;;;;;;;;4978156;28;20241;-77
2023/12/20 06:52:53;;;;;;;14.70;3.73;;;;;;;;;;4984783;28;20226;-80
2023/12/20 06:55:21;;;;;;;11.73;3.53;;;;;;;;;;4953011;28;20275;-76
2023/12/20 06:57:46;;;;;;;13.83;3.80;;;;;;;;;;5008362;28;20609;-78
2023/12/20 07:00:19;;;;;;;10.73;3.53;;;;;;;;;;4969258;28;20271;-79
2023/12/20 07:02:47;;;;;;;12.00;4.13;;;;;;;;;;4986173;28;20317;-77
2023/12/20 07:05:16;;;;;;;12.40;4.00;;;;;;;;;;4992109;28;20805;-77
2023/12/20 07:07:42;;;;;;;8.73;3.63;;;;;;;;;;4961145;28;20238;-77
2023/12/20 07:10:08;;;;;;;9.83;3.70;;;;;;;;;;4962533;28;20242;-78
2023/12/20 07:12:33;;;;;;;14.13;3.60;;;;;;;;;;4979048;28;20241;-78
2023/12/20 07:14:59;;;;;;;11.93;3.80;;;;;;;;;;4979477;28;20233;-77
2023/12/20 07:17:24;;;;;;;9.43;3.00;;;;;;;;;;4979423;28;20229;-77
2023/12/20 07:19:50;;;;;;;12.20;3.70;;;;;;;;;;5010966;28;20237;-77
2023/12/20 07:22:15;;;;;;;14.77;3.80;;;;;;;;;;4996736;28;20225;-80
2023/12/20 07:24:43;;;;;;;12.97;3.90;;;;;;;;;;4955233;28;20293;-77
2023/12/20 07:27:09;;;;;;;13.70;4.30;;;;;;;;;;4975639;28;20225;-77
2023/12/20 07:29:34;;;;;;;10.40;3.53;;;;;;;;;;4948995;28;20237;-79
2023/12/20 07:32:00;;;;;;;12.30;4.13;;;;;;;;;;4980960;28;21092;-78
2023/12/20 07:34:25;;;;;;;10.77;4.20;;;;;;;;;;4978067;28;20226;-78
2023/12/20 07:36:51;;;;;;;14.00;4.60;;;;;;;;;;5017892;28;20737;-78
2023/12/20 07:39:16;;;;;;;13.77;3.77;;;;;;;;;;4988119;28;20214;-78
2023/12/20 07:41:44;;;;;;;14.90;4.47;;;;;;;;;;4957723;28;20236;-79
2023/12/20 07:44:12;;;;;;;9.60;4.50;;;;;;;;;;4956639;28;20213;-78
2023/12/20 07:46:40;;;;;;;12.07;4.40;;;;;;;;;;4958911;28;20272;-78
2023/12/20 07:49:06;;;;;;;15.90;4.73;;;;;;;;;;4980843;28;20300;-77
2023/12/20 07:51:34;;;;;;;10.93;4.03;;;;;;;;;;4984048;28;20702;-77
2023/12/20 07:54:03;;;;;;;11.07;3.90;;;;;;;;;;4987378;28;20572;-79
2023/12/20 07:56:33;;;;;;;13.90;3.90;;;;;;;;;;4956508;28;20304;-76
2023/12/20 07:59:02;;;;;;;12.30;4.60;;;;;;;;;;4971364;28;20225;-78
2023/12/20 08:01:27;;;;;;;11.97;4.60;;;;;;;;;;4972335;28;20280;-78
2023/12/20 08:03:56;;;;;;;17.20;4.73;;;;;;;;;;4972264;28;20214;-78
2023/12/20 08:06:22;;;;;;;10.20;3.83;;;;;;;;;;4979489;28;20222;-79
2023/12/20 08:08:50;;;;;;;16.90;4.57;;;;;;;;;;4984406;28;20284;-77
2023/12/20 08:11:18;;;;;;;11.37;4.37;;;;;;;;;;4981747;28;20218;-77
2023/12/20 08:13:43;;;;;;;10.53;4.23;;;;;;;;;;4970631;28;20218;-77
2023/12/20 08:16:13;;;;;;;12.40;4.20;;;;;;;;;;4951196;28;20221;-77
2023/12/20 08:18:39;;;;;;;12.23;4.10;;;;;;;;;;4969137;28;20605;-76
2023/12/20 08:21:08;;;;;;;13.90;4.73;;;;;;;;;;4970812;28;20234;-77
2023/12/20 08:23:36;;;;;;;13.87;4.33;;;;;;;;;;4968312;28;20595;-79
2023/12/20 08:26:06;;;;;;;9.77;4.60;;;;;;;;;;4973720;28;20329;-78
2023/12/20 08:28:31;;;;;;;12.97;4.27;;;;;;;;;;4982503;28;20228;-79
2023/12/20 08:30:57;;;;;;;17.80;5.60;;;;;;;;;;4984250;28;20221;-77
2023/12/20 08:33:22;;;;;;;13.13;4.60;;;;;;;;;;4956463;28;20298;-78
2023/12/20 08:35:48;;;;;;;15.33;4.43;;;;;;;;;;4956219;28;20226;-76
2023/12/20 08:38:14;;;;;;;13.30;4.63;;;;;;;;;;5015333;28;20225;-78
2023/12/20 08:40:45;;;;;;;13.47;4.50;;;;;;;;;;4971881;28;20218;-76
2023/12/20 08:43:13;;;;;;;14.13;4.30;;;;;;;;;;4994090;28;20226;-77
2023/12/20 08:45:40;;;;;;;12.63;4.50;;;;;;;;;;4994659;28;20353;-78
2023/12/20 08:48:08;;;;;;;12.73;4.47;;;;;;;;;;4975529;28;20227;-78
2023/12/20 08:50:38;;;;;;;14.57;3.90;;;;;;;;;;4969369;28;20319;-78
2023/12/20 08:53:04;;;;;;;30.83;20.43;;;;;;;;;;5006518;28;20213;-79
2023/12/20 08:55:30;;;;;;;12.00;4.87;;;;;;;;;;4980037;28;20230;-78
2023/12/20 08:57:56;;;;;;;12.87;4.57;;;;;;;;;;4975822;28;20233;-78
2023/12/20 09:00:24;;;;;;;12.00;4.53;;;;;;;;;;5020128;28;20745;-79
2023/12/20 09:02:54;;;;;;;10.90;4.20;;;;;;;;;;4972008;28;20591;-80
2023/12/20 09:05:20;;;;;;;9.80;3.83;;;;;;;;;;5003241;28;20262;-78
2023/12/20 09:07:45;;;;;;;10.17;3.80;;;;;;;;;;4979425;28;21072;-78
2023/12/20 09:10:14;;;;;;;15.87;4.47;;;;;;;;;;4977706;28;20221;-78
2023/12/20 09:12:42;;;;;;;12.07;4.20;;;;;;;;;;4989938;28;20213;-77
2023/12/20 09:15:08;;;;;;;9.73;4.03;;;;;;;;;;4969719;28;20228;-79
2023/12/20 09:17:38;;;;;;;10.97;4.40;;;;;;;;;;4983781;28;20216;-78
2023/12/20 09:20:08;;;;;;;13.20;3.97;;;;;;;;;;4970091;28;20234;-78
2023/12/20 09:22:41;;;;;;;13.97;4.20;;;;;;;;;;4995371;28;20985;-77
2023/12/20 09:25:11;;;;;;;12.87;4.50;;;;;;;;;;4994144;28;20217;-77
2023/12/20 09:27:36;;;;;;;12.77;4.07;;;;;;;;;;4981013;28;20217;-78
2023/12/20 09:30:05;;;;;;;11.80;4.23;;;;;;;;;;4995886;28;20688;-76
2023/12/20 09:32:31;;;;;;;10.10;4.60;;;;;;;;;;4931889;28;20225;-77
2023/12/20 09:34:57;;;;;;;10.60;4.47;;;;;;;;;;4969684;28;20302;-78
2023/12/20 09:37:25;;;;;;;11.70;4.30;;;;;;;;;;4982787;28;20232;-77
2023/12/20 09:39:51;;;;;;;11.60;3.83;;;;;;;;;;4961263;28;20226;-79
2023/12/20 09:42:21;;;;;;;14.53;4.10;;;;;;;;;;4970773;28;20266;-78
2023/12/20 09:44:47;;;;;;;14.10;4.10;;;;;;;;;;4993316;28;20229;-77
2023/12/20 09:47:17;;;;;;;11.60;3.83;;;;;;;;;;4980428;28;20225;-78
2023/12/20 09:49:45;;;;;;;10.33;4.03;;;;;;;;;;4977987;28;20233;-78
2023/12/20 09:52:10;;;;;;;12.50;3.57;;;;;;;;;;4974398;28;20692;-78
2023/12/20 09:54:36;;;;;;;10.87;3.47;;;;;;;;;;4988562;28;20243;-76
2023/12/20 09:57:02;;;;;;;8.23;4.03;;;;;;;;;;4953492;28;20213;-79
2023/12/20 09:59:27;;;;;;;7.77;3.30;;;;;;;;;;4973515;28;20304;-77
2023/12/20 10:01:53;;;;;;;9.60;3.03;;;;;;;;;;4980067;28;20222;-79
2023/12/20 10:04:19;;;;;;;8.37;2.70;;;;;;;;;;4970408;28;20214;-79
2023/12/20 10:06:45;;;;;;;9.77;3.47;;;;;;;;;;4944184;28;20240;-78
2023/12/20 10:09:11;;;;;;;3.77;1.70;;;;;;;;;;4986957;28;20710;-78
2023/12/20 10:11:40;;;;;;;7.27;2.20;;;;;;;;;;4952811;28;20316;-77
2023/12/20 10:14:10;;;;;;;5.77;2.10;;;;;;;;;;4990489;28;20224;-76
2023/12/20 10:16:38;;;;;;;13.70;2.70;;;;;;;;;;4965554;28;20257;-77
2023/12/20 10:19:09;;;;;;;10.70;3.10;;;;;;;;;;4974690;28;20218;-76
2023/12/20 10:21:36;;;;;;;9.90;3.03;;;;;;;;;;4961464;28;20233;-76
2023/12/20 10:24:02;;;;;;;10.27;3.23;;;;;;;;;;4952788;28;20213;-76
2023/12/20 10:26:29;;;;;;;9.50;3.50;;;;;;;;;;4975803;28;20255;-77
2023/12/20 10:28:55;;;;;;;5.10;1.83;;;;;;;;;;4966909;28;20236;-77
2023/12/20 10:31:30;;;;;;;3.27;1.07;;;;;;;;;;4980408;28;20750;-75
2023/12/20 10:33:57;;;;;;;2.00;1.13;;;;;;;;;;4957578;28;20224;-78
2023/12/20 10:36:26;;;;;;;6.70;1.40;;;;;;;;;;4977534;28;21133;-77
2023/12/20 10:38:52;;;;;;;1.63;1.13;;;;;;;;;;5007467;28;20234;-78
2023/12/20 10:41:27;;;;;;;1.40;0.87;;;;;;;;;;4964152;28;20222;-77
2023/12/20 10:44:00;;;;;;;4.00;0.93;;;;;;;;;;4975004;28;20221;-77
2023/12/20 10:46:31;;;;;;;3.87;1.50;;;;;;;;;;4963848;28;20598;-77
2023/12/20 10:48:59;;;;;;;4.43;1.60;;;;;;;;;;4967959;28;20255;-77
2023/12/20 10:51:29;;;;;;;2.40;1.03;;;;;;;;;;4967414;28;20257;-77
2023/12/20 10:53:57;;;;;;;2.30;1.07;;;;;;;;;;4960113;28;20358;-77
2023/12/20 10:56:23;;;;;;;2.47;1.10;;;;;;;;;;4951173;28;20221;-76
2023/12/20 10:58:49;;;;;;;3.50;1.40;;;;;;;;;;5014138;28;20572;-77
2023/12/20 11:01:22;;;;;;;2.80;1.50;;;;;;;;;;4961948;28;20589;-77
2023/12/20 11:03:56;;;;;;;3.50;1.53;;;;;;;;;;4986276;28;20244;-78
2023/12/20 11:06:32;;;;;;;2.20;1.30;;;;;;;;;;4977789;28;20226;-77
2023/12/20 11:09:12;;;;;;;2.50;1.20;;;;;;;;;;5005171;28;20616;-77
2023/12/20 11:12:09;;;;;;;2.43;1.83;;;;;;;;;;4968434;28;20318;-76
2023/12/20 11:14:47;;;;;;;2.33;1.27;;;;;;;;;;5002269;28;20280;-77
2023/12/20 11:17:15;;;;;;;2.50;1.10;;;;;;;;;;4977992;28;20221;-78
2023/12/20 11:19:53;;;;;;;2.97;1.30;;;;;;;;;;4994966;28;20260;-77
2023/12/20 11:22:22;;;;;;;1.43;1.07;;;;;;;;;;5011681;28;20861;-77
2023/12/20 11:24:48;;;;;;;3.07;1.40;;;;;;;;;;4988332;28;20321;-77
2023/12/20 11:27:14;;;;;;;6.73;3.97;;;;;;;;;;4958087;28;20221;-78
2023/12/20 11:29:44;;;;;;;10.80;6.37;;;;;;;;;;4955037;28;20658;-79
2023/12/20 11:32:27;;;;;;;7.37;5.13;;;;;;;;;;4956543;28;20291;-77
2023/12/20 11:34:54;;;;;;;12.70;10.67;;;;;;;;;;4980011;28;20352;-77
2023/12/20 11:37:25;;;;;;;3.70;2.63;;;;;;;;;;4994601;28;20245;-79
2023/12/20 11:40:03;;;;;;;6.63;5.93;;;;;;;;;;4972349;28;20301;-79
2023/12/20 11:42:42;;;;;;;4.53;3.50;;;;;;;;;;4998166;28;20348;-76
2023/12/20 11:45:13;;;;;;;3.47;1.40;;;;;;;;;;4981532;28;20217;-77
2023/12/20 11:47:39;;;;;;;7.20;4.60;;;;;;;;;;4981164;28;20257;-77
2023/12/20 11:50:05;;;;;;;5.83;3.00;;;;;;;;;;4979215;28;20238;-77
2023/12/20 11:52:30;;;;;;;5.57;2.00;;;;;;;;;;4970850;28;20276;-76
2023/12/20 11:54:58;;;;;;;6.13;2.33;;;;;;;;;;4956894;28;20232;-78
2023/12/20 11:57:24;;;;;;;4.27;1.40;;;;;;;;;;4987994;28;20229;-77
2023/12/20 11:59:55;;;;;;;3.53;1.70;;;;;;;;;;4988312;28;20276;-78
2023/12/20 12:02:23;;;;;;;4.50;1.50;;;;;;;;;;4961972;28;20258;-76
2023/12/20 12:04:52;;;;;;;4.93;2.00;;;;;;;;;;4995225;28;20264;-77
2023/12/20 12:07:17;;;;;;;6.10;1.70;;;;;;;;;;4955361;28;20245;-78
2023/12/20 12:09:46;;;;;;;7.03;4.63;;;;;;;;;;4974672;28;20260;-77
2023/12/20 12:12:12;;;;;;;12.10;6.17;;;;;;;;;;4990399;28;20226;-78
2023/12/20 12:14:38;;;;;;;9.13;5.37;;;;;;;;;;4965711;28;20234;-77
2023/12/20 12:17:06;;;;;;;6.43;3.10;;;;;;;;;;4969873;28;20221;-77
2023/12/20 12:19:35;;;;;;;11.47;4.20;;;;;;;;;;4997376;28;20230;-77
2023/12/20 12:22:12;;;;;;;10.10;3.40;;;;;;;;;;4982942;28;20253;-79
2023/12/20 12:24:44;;;;;;;6.87;2.20;;;;;;;;;;4978674;28;20241;-78
2023/12/20 12:27:09;;;;;;;7.30;2.67;;;;;;;;;;5010155;28;20271;-77
2023/12/20 12:29:35;;;;;;;3.87;1.80;;;;;;;;;;4997523;28;20233;-77
2023/12/20 12:32:04;;;;;;;7.87;2.20;;;;;;;;;;4976055;28;20597;-80
2023/12/20 12:34:32;;;;;;;8.97;2.00;;;;;;;;;;4980480;28;20253;-79
2023/12/20 12:36:57;;;;;;;3.93;1.43;;;;;;;;;;4990495;28;20221;-78
2023/12/20 12:39:26;;;;;;;4.63;1.90;;;;;;;;;;4973166;28;20230;-78
2023/12/20 12:41:52;;;;;;;5.77;1.93;;;;;;;;;;4977718;28;20238;-77
2023/12/20 12:44:17;;;;;;;5.20;1.43;;;;;;;;;;4992671;28;20292;-79
2023/12/20 12:46:46;;;;;;;6.23;1.77;;;;;;;;;;4957167;28;20230;-78
2023/12/20 12:49:12;;;;;;;3.97;1.90;;;;;;;;;;4976358;28;20317;-78
2023/12/20 12:51:38;;;;;;;7.57;2.17;;;;;;;;;;4982363;28;20295;-80
2023/12/20 12:54:06;;;;;;;9.30;1.90;;;;;;;;;;4983897;28;20222;-79
2023/12/20 12:56:34;;;;;;;5.93;1.70;;;;;;;;;;4984686;28;20233;-78
2023/12/20 12:59:02;;;;;;;7.87;2.17;;;;;;;;;;4988160;28;20231;-81
2023/12/20 13:01:27;;;;;;;8.97;2.40;;;;;;;;;;4987010;28;20229;-79
2023/12/20 13:03:55;;;;;;;7.20;2.43;;;;;;;;;;4977064;28;20742;-80
2023/12/20 13:06:21;;;;;;;7.87;2.50;;;;;;;;;;4981705;28;20649;-78
2023/12/20 13:08:47;;;;;;;14.53;2.57;;;;;;;;;;4968523;28;20293;-79
2023/12/20 13:11:12;;;;;;;10.33;2.90;;;;;;;;;;4969843;28;20226;-79
2023/12/20 13:13:40;;;;;;;4.20;1.83;;;;;;;;;;4997503;28;20230;-78
2023/12/20 13:16:09;;;;;;;7.70;2.00;;;;;;;;;;4957974;28;20687;-79
2023/12/20 13:18:34;;;;;;;6.27;2.33;;;;;;;;;;4996233;28;20230;-79
2023/12/20 13:21:04;;;;;;;5.50;2.10;;;;;;;;;;4989752;28;20628;-77
2023/12/20 13:23:32;;;;;;;10.53;3.40;;;;;;;;;;4991477;28;20233;-78
2023/12/20 13:26:00;;;;;;;9.63;2.50;;;;;;;;;;4975757;28;20244;-78
2023/12/20 13:28:28;;;;;;;4.83;2.20;;;;;;;;;;4973395;28;20230;-75
2023/12/20 13:30:53;;;;;;;6.20;2.20;;;;;;;;;;4987356;28;20230;-77
2023/12/20 13:33:19;;;;;;;5.83;2.23;;;;;;;;;;4975320;28;20285;-80
2023/12/20 13:35:44;;;;;;;7.93;2.70;;;;;;;;;;4970511;28;20229;-78
2023/12/20 13:38:10;;;;;;;6.40;1.87;;;;;;;;;;4996766;28;20222;-76
2023/12/20 13:40:37;;;;;;;7.77;2.17;;;;;;;;;;4970759;28;20678;-78
2023/12/20 13:43:03;;;;;;;6.57;2.17;;;;;;;;;;4972567;28;20235;-78
2023/12/20 13:45:29;;;;;;;9.73;2.30;;;;;;;;;;4982426;28;20241;-78
2023/12/20 13:47:59;;;;;;;7.27;2.27;;;;;;;;;;4957827;28;20233;-78
2023/12/20 13:50:25;;;;;;;9.63;2.00;;;;;;;;;;4959121;28;20233;-78
2023/12/20 13:52:51;;;;;;;7.63;2.07;;;;;;;;;;4998481;28;20230;-79
2023/12/20 13:55:17;;;;;;;5.53;1.80;;;;;;;;;;4968170;28;20247;-78
2023/12/20 13:57:42;;;;;;;7.73;1.90;;;;;;;;;;4970273;28;20234;-80
2023/12/20 14:00:14;;;;;;;6.13;1.87;;;;;;;;;;4976096;28;20252;-80
2023/12/20 14:02:42;;;;;;;8.17;2.10;;;;;;;;;;4961564;28;20220;-76
2023/12/20 14:05:11;;;;;;;9.87;2.60;;;;;;;;;;4987934;28;20226;-78
2023/12/20 14:07:36;;;;;;;5.87;2.37;;;;;;;;;;4985836;28;20623;-81
2023/12/20 14:10:03;;;;;;;7.57;2.63;;;;;;;;;;4985547;28;20305;-78
2023/12/20 14:12:29;;;;;;;7.83;2.80;;;;;;;;;;4982196;28;20234;-78
2023/12/20 14:14:56;;;;;;;6.77;2.40;;;;;;;;;;5002977;28;20240;-78
2023/12/20 14:17:24;;;;;;;10.47;2.83;;;;;;;;;;4969787;28;20225;-77
2023/12/20 14:19:51;;;;;;;14.53;2.40;;;;;;;;;;4984057;28;20221;-79
2023/12/20 14:22:17;;;;;;;5.37;2.27;;;;;;;;;;4971429;28;20221;-80
2023/12/20 14:24:45;;;;;;;6.67;2.83;;;;;;;;;;4982942;28;20241;-78
2023/12/20 14:27:11;;;;;;;10.63;2.90;;;;;;;;;;5009936;28;20214;-77
2023/12/20 14:29:37;;;;;;;10.47;3.03;;;;;;;;;;5000727;28;20243;-79
2023/12/20 14:32:03;;;;;;;6.57;2.53;;;;;;;;;;4974332;28;20224;-79
2023/12/20 14:34:31;;;;;;;9.80;2.70;;;;;;;;;;4972732;28;20230;-77
2023/12/20 14:36:59;;;;;;;6.60;3.00;;;;;;;;;;4974921;28;20233;-79
2023/12/20 14:39:27;;;;;;;11.30;2.97;;;;;;;;;;4975138;28;20304;-79